Time;durP1;ratioP1;P1;durP2;ratioP2;P2;SDS_P1;SDS_P2;PMS_P1;PMS_P2;Temp;Humidity;BMP_temperature;BMP_pressure;BME280_temperature;BME280_humidity;BME280_pressure;Samples;Min_cycle;Max_cycle;Signal;HPM_P1;HPM_P2
2022/11/22 00:01:40;;;;;;;;;;;;;;;;;;4882397;29;19919;-61
2022/11/22 00:04:10;;;;;;;;;;;;;;;;;;4900484;29;19934;-59
2022/11/22 00:06:35;;;;;;;;;;;;;;;;;;4898982;29;20519;-59
2022/11/22 00:09:03;;;;;;;;;;;;;;;;;;4883229;29;20437;-60
2022/11/22 00:11:31;;;;;;;;;;;;;;;;;;4900814;29;19925;-59
2022/11/22 00:13:56;;;;;;;;;;;;;;;;;;4899881;29;19958;-60
2022/11/22 00:16:21;;;;;;;;;;;;;;;;;;4892328;29;20403;-58
2022/11/22 00:18:50;;;;;;;;;;;;;;;;;;4901177;29;19930;-58
2022/11/22 00:21:18;;;;;;;;;;;;;;;;;;4900373;29;20456;-59
2022/11/22 00:23:45;;;;;;;;;;;;;;;;;;4876129;29;19966;-59
2022/11/22 00:26:11;;;;;;;;;;;;;;;;;;4899943;29;20483;-58
2022/11/22 00:28:37;;;;;;;;;;;;;;;;;;4880338;29;20399;-60
2022/11/22 00:31:02;;;;;;;;;;;;;;;;;;4900797;29;20355;-59
2022/11/22 00:33:28;;;;;;;;;;;;;;;;;;4881255;29;19978;-59
2022/11/22 00:35:53;;;;;;;;;;;;;;;;;;4900313;29;20402;-60
2022/11/22 00:38:19;;;;;;;;;;;;;;;;;;4882737;29;19946;-60
2022/11/22 00:40:44;;;;;;;;;;;;;;;;;;4900407;29;19929;-61
2022/11/22 00:43:12;;;;;;;;;;;;;;;;;;4898419;29;20025;-60
2022/11/22 00:45:37;;;;;;;;;;;;;;;;;;4886393;29;19919;-59
2022/11/22 00:48:05;;;;;;;;;;;;;;;;;;4901200;29;19923;-59
2022/11/22 00:50:33;;;;;;;;;;;;;;;;;;4898809;29;19923;-59
2022/11/22 00:52:58;;;;;;;;;;;;;;;;;;4887337;29;20357;-58
2022/11/22 00:55:23;;;;;;;;;;;;;;;;;;4882540;29;19934;-59
2022/11/22 00:57:49;;;;;;;;;;;;;;;;;;4899101;29;20303;-59
2022/11/22 01:00:14;;;;;;;;;;;;;;;;;;4901479;29;19918;-58
2022/11/22 01:02:39;;;;;;;;;;;;;;;;;;4897966;29;20847;-58
2022/11/22 01:05:07;;;;;;;;;;;;;;;;;;4901039;29;20682;-58
2022/11/22 01:07:33;;;;;;;;;;;;;;;;;;4890359;29;19974;-60
2022/11/22 01:10:00;;;;;;;;;;;;;;;;;;4899496;29;19931;-59
2022/11/22 01:12:29;;;;;;;;;;;;;;;;;;4900495;29;19923;-59
2022/11/22 01:14:54;;;;;;;;;;;;;;;;;;4891521;29;20060;-59
2022/11/22 01:17:20;;;;;;;;;;;;;;;;;;4901518;29;20409;-59
2022/11/22 01:19:48;;;;;;;;;;;;;;;;;;4898634;29;20005;-59
2022/11/22 01:22:15;;;;;;;;;;;;;;;;;;4900968;29;20089;-58
2022/11/22 01:24:46;;;;;;;;;;;;;;;;;;4900269;29;19924;-59
2022/11/22 01:27:11;;;;;;;;;;;;;;;;;;4900578;29;20290;-59
2022/11/22 01:29:36;;;;;;;;;;;;;;;;;;4881477;29;19999;-58
2022/11/22 01:32:01;;;;;;;;;;;;;;;;;;4898889;29;19930;-59
2022/11/22 01:34:29;;;;;;;;;;;;;;;;;;4882772;29;20322;-59
2022/11/22 01:36:57;;;;;;;;;;;;;;;;;;4898835;29;19958;-59
2022/11/22 01:39:22;;;;;;;;;;;;;;;;;;4900059;29;19930;-59
2022/11/22 01:41:47;;;;;;;;;;;;;;;;;;4900558;29;20344;-59
2022/11/22 01:44:15;;;;;;;;;;;;;;;;;;4873936;29;20010;-58
2022/11/22 01:46:43;;;;;;;;;;;;;;;;;;4892098;29;19934;-59
2022/11/22 01:49:12;;;;;;;;;;;;;;;;;;4903955;29;19919;-58
2022/11/22 01:51:39;;;;;;;;;;;;;;;;;;4886827;29;19919;-61
2022/11/22 01:54:04;;;;;;;;;;;;;;;;;;4887999;29;20010;-58
2022/11/22 01:56:32;;;;;;;;;;;;;;;;;;4903412;29;19922;-58
2022/11/22 01:59:00;;;;;;;;;;;;;;;;;;4894476;29;19974;-59
2022/11/22 02:01:29;;;;;;;;;;;;;;;;;;4900650;29;19923;-60
2022/11/22 02:03:54;;;;;;;;;;;;;;;;;;4886289;29;19926;-59
2022/11/22 02:06:22;;;;;;;;;;;;;;;;;;4886933;29;19923;-59
2022/11/22 02:08:49;;;;;;;;;;;;;;;;;;4903355;29;20557;-63
2022/11/22 02:11:15;;;;;;;;;;;;;;;;;;4901755;29;19919;-61
2022/11/22 02:13:42;;;;;;;;;;;;;;;;;;4903156;29;19925;-61
2022/11/22 02:16:07;;;;;;;;;;;;;;;;;;4903820;29;19985;-60
2022/11/22 02:18:33;;;;;;;;;;;;;;;;;;4886463;29;20550;-60
2022/11/22 02:21:01;;;;;;;;;;;;;;;;;;4901303;29;19923;-60
2022/11/22 02:23:26;;;;;;;;;;;;;;;;;;4903358;29;20030;-60
2022/11/22 02:25:51;;;;;;;;;;;;;;;;;;4886366;29;19931;-60
2022/11/22 02:28:17;;;;;;;;;;;;;;;;;;4903670;29;20235;-60
2022/11/22 02:30:44;;;;;;;;;;;;;;;;;;4905021;29;20041;-60
2022/11/22 02:33:10;;;;;;;;;;;;;;;;;;4888449;29;19978;-60
2022/11/22 02:35:35;;;;;;;;;;;;;;;;;;4887360;29;19926;-60
2022/11/22 02:38:00;;;;;;;;;;;;;;;;;;4903767;29;19934;-60
2022/11/22 02:40:25;;;;;;;;;;;;;;;;;;4884803;29;19931;-59
2022/11/22 02:42:53;;;;;;;;;;;;;;;;;;4886196;29;20454;-62
2022/11/22 02:45:18;;;;;;;;;;;;;;;;;;4882592;29;20158;-60
2022/11/22 02:47:43;;;;;;;;;;;;;;;;;;4902087;29;20505;-60
2022/11/22 02:50:09;;;;;;;;;;;;;;;;;;4904233;29;20040;-60
2022/11/22 02:52:36;;;;;;;;;;;;;;;;;;4887894;29;20643;-59
2022/11/22 02:55:04;;;;;;;;;;;;;;;;;;4883935;29;20363;-59
2022/11/22 02:57:30;;;;;;;;;;;;;;;;;;4903760;29;19951;-61
2022/11/22 02:59:55;;;;;;;;;;;;;;;;;;4901918;29;20015;-61
2022/11/22 03:02:20;;;;;;;;;;;;;;;;;;4885517;29;19927;-60
2022/11/22 03:04:46;;;;;;;;;;;;;;;;;;4903469;29;19922;-60
2022/11/22 03:07:11;;;;;;;;;;;;;;;;;;4888025;29;19923;-63
2022/11/22 03:09:39;;;;;;;;;;;;;;;;;;4885168;29;19923;-60
2022/11/22 03:12:06;;;;;;;;;;;;;;;;;;4884802;29;20000;-60
2022/11/22 03:14:37;;;;;;;;;;;;;;;;;;4902359;29;19923;-60
2022/11/22 03:17:02;;;;;;;;;;;;;;;;;;4902868;29;20124;-60
2022/11/22 03:19:27;;;;;;;;;;;;;;;;;;4900377;29;19959;-60
2022/11/22 03:21:55;;;;;;;;;;;;;;;;;;4902361;29;20014;-60
2022/11/22 03:24:20;;;;;;;;;;;;;;;;;;4900127;29;20045;-59
2022/11/22 03:26:48;;;;;;;;;;;;;;;;;;4877006;29;22380;-60
2022/11/22 03:29:14;;;;;;;;;;;;;;;;;;4902168;29;19927;-59
2022/11/22 03:31:40;;;;;;;;;;;;;;;;;;4900258;29;19919;-61
2022/11/22 03:34:05;;;;;;;;;;;;;;;;;;4901116;29;19934;-58
2022/11/22 03:36:33;;;;;;;;;;;;;;;;;;4896031;29;19998;-59
2022/11/22 03:38:58;;;;;;;;;;;;;;;;;;4887124;29;19933;-59
2022/11/22 03:41:23;;;;;;;;;;;;;;;;;;4902885;29;20021;-60
2022/11/22 03:43:49;;;;;;;;;;;;;;;;;;4876335;29;19926;-59
2022/11/22 03:46:18;;;;;;;;;;;;;;;;;;4901015;29;20534;-61
2022/11/22 03:48:43;;;;;;;;;;;;;;;;;;4900991;29;19919;-59
2022/11/22 03:51:09;;;;;;;;;;;;;;;;;;4893868;29;20849;-59
2022/11/22 03:53:39;;;;;;;;;;;;;;;;;;4884027;29;19922;-59
2022/11/22 03:56:04;;;;;;;;;;;;;;;;;;4900014;29;20364;-60
2022/11/22 03:58:29;;;;;;;;;;;;;;;;;;4899425;29;19927;-60
2022/11/22 04:00:55;;;;;;;;;;;;;;;;;;4884269;29;20869;-64
2022/11/22 04:03:20;;;;;;;;;;;;;;;;;;4884664;29;20041;-60
2022/11/22 04:05:45;;;;;;;;;;;;;;;;;;4900594;29;20590;-59
2022/11/22 04:08:13;;;;;;;;;;;;;;;;;;4899678;29;20360;-60
2022/11/22 04:10:38;;;;;;;;;;;;;;;;;;4885521;29;20201;-60
2022/11/22 04:13:03;;;;;;;;;;;;;;;;;;4885533;29;20286;-60
2022/11/22 04:15:28;;;;;;;;;;;;;;;;;;4900971;29;20371;-60
2022/11/22 04:17:54;;;;;;;;;;;;;;;;;;4884750;29;19926;-60
2022/11/22 04:23:06;;;;;;;;;;;;;;;;;;4885007;29;21429;-60
2022/11/22 04:25:31;;;;;;;;;;;;;;;;;;4899505;29;20349;-60
2022/11/22 04:27:56;;;;;;;;;;;;;;;;;;4900987;29;19923;-61
2022/11/22 04:32:44;;;;;;;;;;;;;;;;;;4900253;29;20605;-59
2022/11/22 04:33:07;;;;;;;;;;;;;;;;;;4901654;29;20018;-60
2022/11/22 04:35:35;;;;;;;;;;;;;;;;;;4900461;29;20006;-59
2022/11/22 04:38:00;;;;;;;;;;;;;;;;;;4900408;29;20519;-59
2022/11/22 04:40:25;;;;;;;;;;;;;;;;;;4902024;29;20021;-61
2022/11/22 04:45:38;;;;;;;;;;;;;;;;;;4900671;29;20425;-58
2022/11/22 04:48:05;;;;;;;;;;;;;;;;;;4900390;29;19926;-61
2022/11/22 04:53:20;;;;;;;;;;;;;;;;;;4887947;29;20639;-60
2022/11/22 04:55:45;;;;;;;;;;;;;;;;;;4900894;29;20300;-60
2022/11/22 04:58:14;;;;;;;;;;;;;;;;;;4899783;29;20398;-60
2022/11/22 05:00:39;;;;;;;;;;;;;;;;;;4901506;29;20602;-61
2022/11/22 05:03:07;;;;;;;;;;;;;;;;;;4899598;29;20697;-60
2022/11/22 05:05:32;;;;;;;;;;;;;;;;;;4885021;29;21421;-60
2022/11/22 05:07:58;;;;;;;;;;;;;;;;;;4897416;29;19947;-62
2022/11/22 05:10:23;;;;;;;;;;;;;;;;;;4899464;29;20459;-61
2022/11/22 05:12:51;;;;;;;;;;;;;;;;;;4898855;29;19919;-60
2022/11/22 05:15:16;;;;;;;;;;;;;;;;;;4898626;29;20578;-60
2022/11/22 05:17:44;;;;;;;;;;;;;;;;;;4900322;29;19919;-60
2022/11/22 05:20:09;;;;;;;;;;;;;;;;;;4886763;29;20697;-60
2022/11/22 05:25:21;;;;;;;;;;;;;;;;;;4903983;29;19922;-60
2022/11/22 05:27:46;;;;;;;;;;;;;;;;;;4886345;29;19946;-59
2022/11/22 05:30:11;;;;;;;;;;;;;;;;;;4889474;29;19926;-59
2022/11/22 05:32:39;;;;;;;;;;;;;;;;;;4903163;29;19949;-61
2022/11/22 05:35:04;;;;;;;;;;;;;;;;;;4895975;29;20441;-60
2022/11/22 05:37:33;;;;;;;;;;;;;;;;;;4904146;29;19931;-60
2022/11/22 05:39:58;;;;;;;;;;;;;;;;;;4901795;29;20018;-61
2022/11/22 05:42:23;;;;;;;;;;;;;;;;;;4886279;29;19927;-58
2022/11/22 05:44:49;;;;;;;;;;;;;;;;;;4886352;29;19926;-59
2022/11/22 05:47:14;;;;;;;;;;;;;;;;;;4903371;29;19923;-60
2022/11/22 05:49:44;;;;;;;;;;;;;;;;;;4902669;29;19919;-60
2022/11/22 05:52:12;;;;;;;;;;;;;;;;;;4903152;29;19934;-61
2022/11/22 05:54:37;;;;;;;;;;;;;;;;;;4889459;29;19926;-61
2022/11/22 05:57:03;;;;;;;;;;;;;;;;;;4886865;29;20033;-59
2022/11/22 05:59:28;;;;;;;;;;;;;;;;;;4901400;29;19931;-62
2022/11/22 06:01:53;;;;;;;;;;;;;;;;;;4902970;29;19931;-61
2022/11/22 06:04:19;;;;;;;;;;;;;;;;;;4886039;29;20360;-59
2022/11/22 06:06:47;;;;;;;;;;;;;;;;;;4903843;29;20002;-60
2022/11/22 06:09:12;;;;;;;;;;;;;;;;;;4900610;29;20405;-60
2022/11/22 06:11:40;;;;;;;;;;;;;;;;;;4902598;29;19977;-60
2022/11/22 06:14:05;;;;;;;;;;;;;;;;;;4894055;29;20434;-59
2022/11/22 06:16:31;;;;;;;;;;;;;;;;;;4903596;29;19919;-61
2022/11/22 06:18:58;;;;;;;;;;;;;;;;;;4904297;29;19954;-61
2022/11/22 06:21:24;;;;;;;;;;;;;;;;;;4900962;29;20156;-61
2022/11/22 06:23:50;;;;;;;;;;;;;;;;;;4902625;29;20331;-60
2022/11/22 06:26:15;;;;;;;;;;;;;;;;;;4878956;29;19977;-59
2022/11/22 06:28:43;;;;;;;;;;;;;;;;;;4902159;29;20091;-59
2022/11/22 06:31:11;;;;;;;;;;;;;;;;;;4894744;29;20267;-60
2022/11/22 06:33:36;;;;;;;;;;;;;;;;;;4902823;29;19922;-59
2022/11/22 06:36:04;;;;;;;;;;;;;;;;;;4885681;29;20045;-59
2022/11/22 06:38:32;;;;;;;;;;;;;;;;;;4902281;29;20362;-59
2022/11/22 06:41:00;;;;;;;;;;;;;;;;;;4903808;29;20461;-59
2022/11/22 06:43:25;;;;;;;;;;;;;;;;;;4887966;29;20472;-60
2022/11/22 06:45:53;;;;;;;;;;;;;;;;;;4888130;29;20386;-60
2022/11/22 06:48:18;;;;;;;;;;;;;;;;;;4903630;29;20013;-59
2022/11/22 06:50:44;;;;;;;;;;;;;;;;;;4901409;29;20404;-60
2022/11/22 06:53:09;;;;;;;;;;;;;;;;;;4902043;29;19927;-59
2022/11/22 06:55:37;;;;;;;;;;;;;;;;;;4894084;29;20023;-60
2022/11/22 06:58:02;;;;;;;;;;;;;;;;;;4890543;29;19927;-60
2022/11/22 07:00:28;;;;;;;;;;;;;;;;;;4902921;29;19989;-61
2022/11/22 07:02:53;;;;;;;;;;;;;;;;;;4884001;29;20388;-60
2022/11/22 07:05:21;;;;;;;;;;;;;;;;;;4901386;29;19923;-59
2022/11/22 07:07:46;;;;;;;;;;;;;;;;;;4884857;29;19923;-59
2022/11/22 07:10:14;;;;;;;;;;;;;;;;;;4900363;29;20326;-60
2022/11/22 07:12:39;;;;;;;;;;;;;;;;;;4902490;29;20362;-60
2022/11/22 07:15:05;;;;;;;;;;;;;;;;;;4903720;29;19922;-61
2022/11/22 07:17:30;;;;;;;;;;;;;;;;;;4901813;29;19923;-60
2022/11/22 07:19:57;;;;;;;;;;;;;;;;;;4902523;29;20020;-61
2022/11/22 07:22:23;;;;;;;;;;;;;;;;;;4902177;29;19933;-61
2022/11/22 07:24:49;;;;;;;;;;;;;;;;;;4901683;29;20010;-59
2022/11/22 07:27:17;;;;;;;;;;;;;;;;;;4893331;29;20682;-60
2022/11/22 07:29:42;;;;;;;;;;;;;;;;;;4900010;29;19930;-62
2022/11/22 07:32:07;;;;;;;;;;;;;;;;;;4883294;29;19923;-59
2022/11/22 07:34:33;;;;;;;;;;;;;;;;;;4901737;29;19932;-60
2022/11/22 07:37:00;;;;;;;;;;;;;;;;;;4900522;29;20122;-60
2022/11/22 07:39:28;;;;;;;;;;;;;;;;;;4900533;29;19934;-60
2022/11/22 07:41:53;;;;;;;;;;;;;;;;;;4889784;29;20287;-60
2022/11/22 07:44:18;;;;;;;;;;;;;;;;;;4876307;29;19931;-59
2022/11/22 07:50:01;;;;;;;;;;;;;;;;;;4901525;29;19949;-59
2022/11/22 07:52:28;;;;;;;;;;;;;;;;;;4900686;29;19962;-59
2022/11/22 07:54:56;;;;;;;;;;;;;;;;;;4882444;29;20021;-60
2022/11/22 07:57:22;;;;;;;;;;;;;;;;;;4902340;29;19958;-60
2022/11/22 07:59:48;;;;;;;;;;;;;;;;;;4901076;29;20052;-61
2022/11/22 08:02:15;;;;;;;;;;;;;;;;;;4901381;29;19945;-62
2022/11/22 08:04:43;;;;;;;;;;;;;;;;;;4901997;29;20462;-61
2022/11/22 08:07:09;;;;;;;;;;;;;;;;;;4892100;29;20018;-63
2022/11/22 08:09:35;;;;;;;;;;;;;;;;;;4882917;29;20295;-61
2022/11/22 08:12:00;;;;;;;;;;;;;;;;;;4900713;29;20037;-62
2022/11/22 08:14:28;;;;;;;;;;;;;;;;;;4899892;29;20058;-61
2022/11/22 08:16:58;;;;;;;;;;;;;;;;;;4901808;29;19923;-61
2022/11/22 08:22:40;;;;;;;;;;;;;;;;;;4900180;29;20104;-63
2022/11/22 08:25:11;;;;;;;;;;;;;;;;;;4901373;29;19923;-65
2022/11/22 08:27:36;;;;;;;;;;;;;;;;;;4900798;29;20438;-62
2022/11/22 08:30:01;;;;;;;;;;;;;;;;;;4901641;29;19922;-61
2022/11/22 08:32:27;;;;;;;;;;;;;;;;;;4900473;29;19923;-63
2022/11/22 08:34:52;;;;;;;;;;;;;;;;;;4901680;29;21476;-62
2022/11/22 08:37:17;;;;;;;;;;;;;;;;;;4898754;29;19922;-62
2022/11/22 08:39:43;;;;;;;;;;;;;;;;;;4883786;29;19919;-63
2022/11/22 08:42:08;;;;;;;;;;;;;;;;;;4891224;29;19922;-61
2022/11/22 08:44:34;;;;;;;;;;;;;;;;;;4900742;29;19927;-61
2022/11/22 08:46:59;;;;;;;;;;;;;;;;;;4899081;29;19966;-62
2022/11/22 08:49:24;;;;;;;;;;;;;;;;;;4900539;29;20692;-62
2022/11/22 08:51:53;;;;;;;;;;;;;;;;;;4897439;29;19919;-63
2022/11/22 08:54:20;;;;;;;;;;;;;;;;;;4901459;29;19919;-62
2022/11/22 08:56:48;;;;;;;;;;;;;;;;;;4905163;29;19969;-62
2022/11/22 08:59:13;;;;;;;;;;;;;;;;;;4889789;29;19982;-61
2022/11/22 09:01:39;;;;;;;;;;;;;;;;;;4905439;29;20361;-61
2022/11/22 09:04:04;;;;;;;;;;;;;;;;;;4905046;29;19937;-61
2022/11/22 09:06:29;;;;;;;;;;;;;;;;;;4887684;29;19933;-63
2022/11/22 09:08:55;;;;;;;;;;;;;;;;;;4903919;29;19919;-63
2022/11/22 09:11:20;;;;;;;;;;;;;;;;;;4895440;29;19933;-63
2022/11/22 09:13:46;;;;;;;;;;;;;;;;;;4904865;29;19930;-63
2022/11/22 09:16:11;;;;;;;;;;;;;;;;;;4895766;29;21377;-63
2022/11/22 09:18:52;;;;;;;;;;;;;;;;;;4904620;29;19923;-63
2022/11/22 09:21:18;;;;;;;;;;;;;;;;;;4887093;29;20443;-61
2022/11/22 09:23:43;;;;;;;;;;;;;;;;;;4877231;29;19964;-61
2022/11/22 09:29:25;;;;;;;;;;;;;;;;;;4905033;29;20224;-64
2022/11/22 09:31:50;;;;;;;;;;;;;;;;;;4903012;29;19949;-63
2022/11/22 09:34:16;;;;;;;;;;;;;;;;;;4903920;29;19923;-63
2022/11/22 09:36:43;;;;;;;;;;;;;;;;;;4902136;29;20009;-66
2022/11/22 09:39:08;;;;;;;;;;;;;;;;;;4905075;29;20005;-63
2022/11/22 09:41:34;;;;;;;;;;;;;;;;;;4904591;29;19919;-63
2022/11/22 09:44:00;;;;;;;;;;;;;;;;;;4904629;29;19975;-64
2022/11/22 09:46:25;;;;;;;;;;;;;;;;;;4887257;29;19927;-64
2022/11/22 09:48:53;;;;;;;;;;;;;;;;;;4902876;29;21601;-66
2022/11/22 09:51:21;;;;;;;;;;;;;;;;;;4902036;28;19919;-64
2022/11/22 09:53:46;;;;;;;;;;;;;;;;;;4885523;29;20079;-64
2022/11/22 09:56:14;;;;;;;;;;;;;;;;;;4886633;29;20117;-63
2022/11/22 09:58:40;;;;;;;;;;;;;;;;;;4885826;29;19925;-63
2022/11/22 10:01:08;;;;;;;;;;;;;;;;;;4894242;29;19919;-64
2022/11/22 10:03:33;;;;;;;;;;;;;;;;;;4903617;29;20049;-64
2022/11/22 10:05:59;;;;;;;;;;;;;;;;;;4902998;29;20394;-64
2022/11/22 10:08:24;;;;;;;;;;;;;;;;;;4901913;29;20042;-63
2022/11/22 10:10:52;;;;;;;;;;;;;;;;;;4895291;29;20469;-65
2022/11/22 10:13:18;;;;;;;;;;;;;;;;;;4884014;29;20246;-61
2022/11/22 10:15:43;;;;;;;;;;;;;;;;;;4905238;29;20262;-63
2022/11/22 10:18:10;;;;;;;;;;;;;;;;;;4902180;29;19919;-64
2022/11/22 10:20:35;;;;;;;;;;;;;;;;;;4888241;29;19930;-64
2022/11/22 10:23:01;;;;;;;;;;;;;;;;;;4901591;29;19950;-64
2022/11/22 10:25:26;;;;;;;;;;;;;;;;;;4894388;29;19933;-65
2022/11/22 10:27:54;;;;;;;;;;;;;;;;;;4903273;29;20466;-64
2022/11/22 10:30:19;;;;;;;;;;;;;;;;;;4884985;29;20018;-64
2022/11/22 10:32:49;;;;;;;;;;;;;;;;;;4893796;29;19923;-64
2022/11/22 10:35:17;;;;;;;;;;;;;;;;;;4894553;29;19958;-64
2022/11/22 10:37:42;;;;;;;;;;;;;;;;;;4892433;29;20080;-65
2022/11/22 10:40:07;;;;;;;;;;;;;;;;;;4886743;29;19919;-65
2022/11/22 10:42:35;;;;;;;;;;;;;;;;;;4887945;29;20006;-63
2022/11/22 10:45:00;;;;;;;;;;;;;;;;;;4900382;29;19923;-64
2022/11/22 10:47:26;;;;;;;;;;;;;;;;;;4891756;29;19945;-65
2022/11/22 10:49:51;;;;;;;;;;;;;;;;;;4902927;29;20314;-63
2022/11/22 10:52:17;;;;;;;;;;;;;;;;;;4884270;29;20071;-63
2022/11/22 10:54:47;;;;;;;;;;;;;;;;;;4884352;29;20375;-63
2022/11/22 10:57:12;;;;;;;;;;;;;;;;;;4902304;29;19919;-64
2022/11/22 10:59:38;;;;;;;;;;;;;;;;;;4884849;29;19959;-65
2022/11/22 11:02:05;;;;;;;;;;;;;;;;;;4884407;29;20907;-66
2022/11/22 11:04:30;;;;;;;;;;;;;;;;;;4902846;29;19933;-65
2022/11/22 11:06:56;;;;;;;;;;;;;;;;;;4900964;29;19923;-66
2022/11/22 11:09:23;;;;;;;;;;;;;;;;;;4902543;29;20389;-64
2022/11/22 11:11:52;;;;;;;;;;;;;;;;;;4903650;29;19919;-65
2022/11/22 11:14:21;;;;;;;;;;;;;;;;;;4875918;29;20371;-64
2022/11/22 11:16:47;;;;;;;;;;;;;;;;;;4901403;29;19930;-64
2022/11/22 11:19:12;;;;;;;;;;;;;;;;;;4884281;29;19923;-65
2022/11/22 11:21:37;;;;;;;;;;;;;;;;;;4883509;29;19981;-65
2022/11/22 11:24:03;;;;;;;;;;;;;;;;;;4893621;29;20320;-65
2022/11/22 11:26:28;;;;;;;;;;;;;;;;;;4882578;29;19987;-66
2022/11/22 11:28:53;;;;;;;;;;;;;;;;;;4883301;29;20374;-66
2022/11/22 11:31:20;;;;;;;;;;;;;;;;;;4886002;29;19953;-65
2022/11/22 11:33:48;;;;;;;;;;;;;;;;;;4885552;29;20006;-65
2022/11/22 11:36:13;;;;;;;;;;;;;;;;;;4884350;29;19930;-66
2022/11/22 11:38:39;;;;;;;;;;;;;;;;;;4900955;29;19930;-65
2022/11/22 11:41:09;;;;;;;;;;;;;;;;;;4900893;29;19923;-66
2022/11/22 11:43:35;;;;;;;;;;;;;;;;;;4902298;29;19927;-66
2022/11/22 11:46:00;;;;;;;;;;;;;;;;;;4902008;29;19923;-66
2022/11/22 11:48:26;;;;;;;;;;;;;;;;;;4892744;29;20005;-65
2022/11/22 11:50:53;;;;;;;;;;;;;;;;;;4902196;29;20477;-65
2022/11/22 11:53:19;;;;;;;;;;;;;;;;;;4883985;29;19928;-66
2022/11/22 11:55:44;;;;;;;;;;;;;;;;;;4898900;29;19922;-65
2022/11/22 11:58:12;;;;;;;;;;;;;;;;;;4901317;29;20775;-64
2022/11/22 12:00:38;;;;;;;;;;;;;;;;;;4902239;29;19946;-67
2022/11/22 12:03:03;;;;;;;;;;;;;;;;;;4881978;29;20616;-65
2022/11/22 12:05:29;;;;;;;;;;;;;;;;;;4887985;29;19946;-65
2022/11/22 12:07:56;;;;;;;;;;;;;;;;;;4900082;29;21583;-65
2022/11/22 12:10:22;;;;;;;;;;;;;;;;;;4902224;29;19922;-65
2022/11/22 12:12:50;;;;;;;;;;;;;;;;;;4883730;29;19953;-65
2022/11/22 12:15:16;;;;;;;;;;;;;;;;;;4901905;29;19919;-67
2022/11/22 12:17:41;;;;;;;;;;;;;;;;;;4901685;29;20022;-62
2022/11/22 12:20:07;;;;;;;;;;;;;;;;;;4902655;29;19978;-61
2022/11/22 12:22:32;;;;;;;;;;;;;;;;;;4882835;29;19931;-66
2022/11/22 12:24:58;;;;;;;;;;;;;;;;;;4891734;29;19981;-65
2022/11/22 12:27:23;;;;;;;;;;;;;;;;;;4899135;29;19922;-64
2022/11/22 12:29:50;;;;;;;;;;;;;;;;;;4882910;29;20466;-64
2022/11/22 12:32:18;;;;;;;;;;;;;;;;;;4901431;29;19923;-64
2022/11/22 12:34:46;;;;;;;;;;;;;;;;;;4899871;29;19990;-65
2022/11/22 12:37:12;;;;;;;;;;;;;;;;;;4881325;29;19946;-66
2022/11/22 12:39:37;;;;;;;;;;;;;;;;;;4899963;29;20018;-63
2022/11/22 12:42:03;;;;;;;;;;;;;;;;;;4900716;29;20327;-64
2022/11/22 12:44:28;;;;;;;;;;;;;;;;;;4883881;29;19962;-62
2022/11/22 12:46:56;;;;;;;;;;;;;;;;;;4899467;29;20259;-64
2022/11/22 12:49:21;;;;;;;;;;;;;;;;;;4887355;29;19919;-64
2022/11/22 12:51:47;;;;;;;;;;;;;;;;;;4900091;29;19977;-65
2022/11/22 12:54:12;;;;;;;;;;;;;;;;;;4897953;29;19914;-65
2022/11/22 12:59:56;;;;;;;;;;;;;;;;;;4900498;29;19957;-65
2022/11/22 13:02:24;;;;;;;;;;;;;;;;;;4888029;29;20005;-65
2022/11/22 13:04:49;;;;;;;;;;;;;;;;;;4897951;29;20344;-66
2022/11/22 13:07:17;;;;;;;;;;;;;;;;;;4891276;29;19978;-66
2022/11/22 13:09:45;;;;;;;;;;;;;;;;;;4873773;29;20518;-65
2022/11/22 13:12:13;;;;;;;;;;;;;;;;;;4886551;29;19954;-65
2022/11/22 13:14:38;;;;;;;;;;;;;;;;;;4881551;29;20560;-66
2022/11/22 13:17:04;;;;;;;;;;;;;;;;;;4889946;29;19919;-65
2022/11/22 13:19:30;;;;;;;;;;;;;;;;;;4898846;29;19919;-65
2022/11/22 13:21:56;;;;;;;;;;;;;;;;;;4874836;29;19934;-65
2022/11/22 13:24:21;;;;;;;;;;;;;;;;;;4899909;29;20323;-65
2022/11/22 13:26:47;;;;;;;;;;;;;;;;;;4895495;29;19933;-65
2022/11/22 13:29:15;;;;;;;;;;;;;;;;;;4881312;29;20006;-67
2022/11/22 13:31:41;;;;;;;;;;;;;;;;;;4900662;29;20025;-65
2022/11/22 13:34:08;;;;;;;;;;;;;;;;;;4882187;29;19923;-66
2022/11/22 13:36:36;;;;;;;;;;;;;;;;;;4897136;29;20839;-65
2022/11/22 13:39:03;;;;;;;;;;;;;;;;;;4880755;29;19923;-65
2022/11/22 13:44:45;;;;;;;;;;;;;;;;;;4902631;29;19937;-66
2022/11/22 13:47:10;;;;;;;;;;;;;;;;;;4901640;29;19919;-66
2022/11/22 13:49:35;;;;;;;;;;;;;;;;;;4903636;29;20005;-66
2022/11/22 13:52:03;;;;;;;;;;;;;;;;;;4885143;29;19923;-65
2022/11/22 13:54:29;;;;;;;;;;;;;;;;;;4902110;29;19934;-65
2022/11/22 13:56:56;;;;;;;;;;;;;;;;;;4883242;29;19963;-65
2022/11/22 13:59:24;;;;;;;;;;;;;;;;;;4877592;29;19926;-65
2022/11/22 14:02:10;;;;;;;;;;;;;;;;;;4904043;29;20849;-65
2022/11/22 14:04:36;;;;;;;;;;;;;;;;;;4884340;29;19927;-64
2022/11/22 14:07:01;;;;;;;;;;;;;;;;;;4877526;29;20009;-65
2022/11/22 14:09:27;;;;;;;;;;;;;;;;;;4886506;29;20434;-67
2022/11/22 14:11:52;;;;;;;;;;;;;;;;;;4902802;29;19922;-65
2022/11/22 14:14:18;;;;;;;;;;;;;;;;;;4901618;29;20003;-66
2022/11/22 14:16:44;;;;;;;;;;;;;;;;;;4903189;29;20360;-64
2022/11/22 14:19:09;;;;;;;;;;;;;;;;;;4884616;29;19930;-66
2022/11/22 14:21:34;;;;;;;;;;;;;;;;;;4886244;29;20446;-66
2022/11/22 14:24:00;;;;;;;;;;;;;;;;;;4891814;29;19961;-66
2022/11/22 14:26:26;;;;;;;;;;;;;;;;;;4903697;29;19927;-65
2022/11/22 14:28:51;;;;;;;;;;;;;;;;;;4902894;29;19997;-68
2022/11/22 14:31:16;;;;;;;;;;;;;;;;;;4901634;29;20002;-66
2022/11/22 14:33:45;;;;;;;;;;;;;;;;;;4901071;29;20206;-66
2022/11/22 14:36:15;;;;;;;;;;;;;;;;;;4885356;29;19919;-65
2022/11/22 14:38:43;;;;;;;;;;;;;;;;;;4887507;29;19923;-64
2022/11/22 14:41:08;;;;;;;;;;;;;;;;;;4903739;29;19922;-64
2022/11/22 14:43:33;;;;;;;;;;;;;;;;;;4883232;29;19927;-65
2022/11/22 14:45:59;;;;;;;;;;;;;;;;;;4887710;29;19923;-64
2022/11/22 14:48:27;;;;;;;;;;;;;;;;;;4901461;29;19923;-66
2022/11/22 14:50:52;;;;;;;;;;;;;;;;;;4899599;29;19930;-64
2022/11/22 14:53:20;;;;;;;;;;;;;;;;;;4884853;29;19979;-66
2022/11/22 14:55:46;;;;;;;;;;;;;;;;;;4888955;29;19935;-66
2022/11/22 14:58:11;;;;;;;;;;;;;;;;;;4879585;29;20009;-65
2022/11/22 15:00:37;;;;;;;;;;;;;;;;;;4882080;29;20458;-65
2022/11/22 15:03:02;;;;;;;;;;;;;;;;;;4889857;29;19931;-65
2022/11/22 15:05:28;;;;;;;;;;;;;;;;;;4883746;29;19929;-64
2022/11/22 15:07:54;;;;;;;;;;;;;;;;;;4881708;29;19927;-66
2022/11/22 15:10:19;;;;;;;;;;;;;;;;;;4882032;29;20070;-65
2022/11/22 15:12:46;;;;;;;;;;;;;;;;;;4880458;29;20367;-64
2022/11/22 15:15:15;;;;;;;;;;;;;;;;;;4883606;29;19924;-64
2022/11/22 15:17:40;;;;;;;;;;;;;;;;;;4881644;29;19981;-65
2022/11/22 15:20:05;;;;;;;;;;;;;;;;;;4880615;29;19919;-67
2022/11/22 15:25:47;;;;;;;;;;;;;;;;;;4883509;29;20494;-65
2022/11/22 15:28:12;;;;;;;;;;;;;;;;;;4880224;29;20660;-66
2022/11/22 15:30:38;;;;;;;;;;;;;;;;;;4889507;29;19923;-64
2022/11/22 15:33:04;;;;;;;;;;;;;;;;;;4864166;29;19946;-65
2022/11/22 15:35:31;;;;;;;;;;;;;;;;;;4873482;29;19931;-64
2022/11/22 15:37:59;;;;;;;;;;;;;;;;;;4879368;29;20374;-65
2022/11/22 15:40:27;;;;;;;;;;;;;;;;;;4879438;29;19928;-66
2022/11/22 15:42:52;;;;;;;;;;;;;;;;;;4863483;29;19928;-65
2022/11/22 15:45:17;;;;;;;;;;;;;;;;;;4881206;29;19934;-65
2022/11/22 15:47:45;;;;;;;;;;;;;;;;;;4881595;29;19941;-65
2022/11/22 15:50:10;;;;;;;;;;;;;;;;;;4879682;29;19928;-64
2022/11/22 15:52:37;;;;;;;;;;;;;;;;;;4887897;29;19926;-62
2022/11/22 15:55:04;;;;;;;;;;;;;;;;;;4865331;29;19927;-63
2022/11/22 15:57:29;;;;;;;;;;;;;;;;;;4884671;29;19986;-65
2022/11/22 15:59:55;;;;;;;;;;;;;;;;;;4889501;29;20018;-64
2022/11/22 16:02:20;;;;;;;;;;;;;;;;;;4884095;29;19923;-61
2022/11/22 16:04:45;;;;;;;;;;;;;;;;;;4883476;29;20335;-63
2022/11/22 16:07:13;;;;;;;;;;;;;;;;;;4876677;29;19919;-63
2022/11/22 16:09:38;;;;;;;;;;;;;;;;;;4898093;29;19962;-63
2022/11/22 16:12:06;;;;;;;;;;;;;;;;;;4899260;29;20375;-63
2022/11/22 16:14:34;;;;;;;;;;;;;;;;;;4873636;29;20325;-63
2022/11/22 16:17:02;;;;;;;;;;;;;;;;;;4901889;29;19944;-64
2022/11/22 16:19:29;;;;;;;;;;;;;;;;;;4901240;29;20961;-65
2022/11/22 16:21:55;;;;;;;;;;;;;;;;;;4900219;29;20053;-62
2022/11/22 16:24:20;;;;;;;;;;;;;;;;;;4898425;29;20003;-64
2022/11/22 16:26:46;;;;;;;;;;;;;;;;;;4900839;29;19923;-65
2022/11/22 16:29:12;;;;;;;;;;;;;;;;;;4883346;29;19927;-64
2022/11/22 16:31:40;;;;;;;;;;;;;;;;;;4886747;29;19938;-66
2022/11/22 16:34:05;;;;;;;;;;;;;;;;;;4879704;29;19923;-65
2022/11/22 16:36:30;;;;;;;;;;;;;;;;;;4886205;29;20536;-66
2022/11/22 16:39:00;;;;;;;;;;;;;;;;;;4897976;29;20041;-66
2022/11/22 16:41:26;;;;;;;;;;;;;;;;;;4900014;29;19922;-65
2022/11/22 16:43:51;;;;;;;;;;;;;;;;;;4898243;29;19961;-64
2022/11/22 16:46:17;;;;;;;;;;;;;;;;;;4899939;29;20398;-65
2022/11/22 16:48:42;;;;;;;;;;;;;;;;;;4899433;29;20113;-64
2022/11/22 16:51:08;;;;;;;;;;;;;;;;;;4898315;29;19922;-67
2022/11/22 16:53:33;;;;;;;;;;;;;;;;;;4881662;29;19919;-64
2022/11/22 16:55:58;;;;;;;;;;;;;;;;;;4885253;29;19981;-66
2022/11/22 16:58:23;;;;;;;;;;;;;;;;;;4882350;29;20360;-66
2022/11/22 17:00:52;;;;;;;;;;;;;;;;;;4888643;29;19945;-65
2022/11/22 17:03:20;;;;;;;;;;;;;;;;;;4899584;29;20283;-66
2022/11/22 17:05:46;;;;;;;;;;;;;;;;;;4883787;29;19933;-65
2022/11/22 17:08:11;;;;;;;;;;;;;;;;;;4897576;29;19922;-65
2022/11/22 17:10:36;;;;;;;;;;;;;;;;;;4882049;29;20515;-65